• Join FlightAware (Why Join?)
  • Login
  • US Flag 
03:51PM EDT


 

Airport Tracker/Info


-or-


 

Live Flight TrackerFlight Track Log ✈ UAL582 ✈ 30-Jun-2013 ✈ CYYZ - KORD

Flight Track Log - Related Links

Times and Time Zones

All times are in EDT time to prevent confusion due to time zone crossing. See the UAL582 flight status page for this flight to view local times or setup timezone preferences in your user account.

Time Position Orientation Groundspeed Altitude Reporting Facility
EDT Latitude Longitude Course Direction KTS MPH feet Rate Location/Type
05:24PM 43.6833 -79.6167 270° West 20 23 900  Level Toronto Center
05:25PM 43.7167 -79.5667 47° Northeast 200 230 3,300 2,700 Climbing Toronto Center
05:26PM 43.7833 -79.5833 350° North 270 311 6,300 3,420 Climbing Toronto Center
05:27PM 43.7117 -80.1065 277° West  Level FlightAware Approximate
05:27PM 43.7667 -79.7000 259° West 280 322 10,200  Level Toronto Center
05:28PM 43.7179 -80.2302 277° West  Level FlightAware Approximate
05:28PM 43.7667 -79.8167 270° West 330 380 12,200  Level Toronto Center
05:29PM 43.7291 -80.3534 277° West  Level FlightAware Approximate
05:29PM 43.7667 -79.9500 270° West 370 426 14,500  Level Toronto Center
05:30PM 43.7334 -80.4924 270° West  Level FlightAware Approximate
05:30PM 43.7667 -80.1000 270° West 380 437 17,300  Level Toronto Center
05:31PM 43.7667 -80.2500 270° West 390 449 19,500 2,040 Climbing Toronto Center
05:33PM 43.7667 -80.5833 270° West 420 483 23,500 1,920 Climbing Toronto Center
05:34PM 43.7333 -80.7333 253° West 430 495 25,300 1,560 Climbing Toronto Center
05:35PM 43.6833 -80.9000 248° West 440 506 26,700 1,440 Climbing Toronto Center
05:36PM 43.6500 -81.0667 255° West 450 518 28,200 1,740 Climbing Toronto Center
05:37PM 43.6167 -81.2167 253° West 450 518 30,200 1,800 Climbing Toronto Center
05:38PM 43.5833 -81.3833 255° West 440 506 31,800 900 Climbing Toronto Center
05:39PM 43.5333 -81.5500 248° West 440 506 32,000 60 Climbing Toronto Center
05:40PM 43.5000 -81.7000 253° West 440 506 32,000 -60 Level Toronto Center
05:41PM 43.4667 -81.8667 255° West 440 506 31,900 -60 Descending Toronto Center
05:42PM 43.4019 -82.1519 253° West 442 509 31,900  Level Cleveland Center
05:43PM 43.3600 -82.3078 250° West 442 509 32,000  Climbing Cleveland Center
05:44PM 43.3200 -82.4664 251° West 442 509 32,000  Level Cleveland Center
05:45PM 43.2758 -82.6219 249° West 442 509 32,000  Level Cleveland Center
05:46PM 43.2333 -82.7803 250° West 442 509 32,000 -60 Level Cleveland Center
05:47PM 43.1906 -82.9353 249° West 442 509 31,900  Descending Cleveland Center
05:48PM 43.1478 -83.0931 250° West 442 509 32,000  Climbing Cleveland Center
05:49PM 43.1044 -83.2533 250° West 442 509 32,000  Level Cleveland Center
05:50PM 43.0633 -83.4108 250° West 442 509 32,000  Level Cleveland Center
05:51PM 43.0178 -83.5647 248° West 442 509 32,000  Level Cleveland Center
05:53PM 42.9522 -83.9050 255° West 447 514 32,000  Level Cleveland Center
05:56PM 42.9000 -84.2500 258° West 450 518 32,000  Level Toronto Center
05:57PM 42.8833 -84.4333 263° West 450 518 32,000  Level Toronto Center
05:58PM 42.8667 -84.6000 262° West 460 529 32,000  Level Toronto Center
05:59PM 42.8500 -84.7667 262° West 460 529 32,000 -480 Level Toronto Center
06:00PM 42.8167 -84.9333 255° West 460 529 31,100 -960 Descending Toronto Center
06:01PM 42.8219 -85.1711 272° West 454 522 29,700 -1,020 Descending Chicago Center
06:02PM 42.8036 -85.3403 262° West 453 521 28,700 -1,020 Descending Chicago Center
06:03PM 42.7839 -85.5097 261° West 451 519 27,700 -1,080 Descending Chicago Center
06:04PM 42.7478 -85.7122 256° West 455 524 26,500 -1,080 Descending Chicago Center
06:05PM 42.7175 -85.8769 256° West 449 517 25,500 -1,320 Descending Chicago Center
06:06PM 42.6881 -86.0414 256° West 445 512 23,800 -2,100 Descending Chicago Center
06:07PM 42.6586 -86.2028 256° West 440 506 21,200 -2,280 Descending Chicago Center
06:08PM 42.6294 -86.3553 255° West 420 483 19,100 -1,680 Descending Chicago Center
06:09PM 42.6000 -86.5061 255° West 413 475 17,800 -1,320 Descending Chicago Center
06:10PM 42.5731 -86.6528 256° West 402 463 16,400 -1,380 Descending Chicago Center
06:11PM 42.5431 -86.7986 254° West 404 465 15,000 -1,500 Descending Chicago Center
06:12PM 42.4961 -86.9642 249° West 396 456 13,400 -1,440 Descending Chicago Center
06:13PM 42.4572 -87.0967 248° West 384 442 12,100 -1,260 Descending Chicago Center
06:14PM 42.4225 -87.2267 250° West 373 429 10,800 -1,020 Descending Chicago Center
06:15PM 42.3881 -87.3550 250° West 367 422 10,000 -420 Descending Chicago Center
06:17PM 42.3528 -87.4819 249° West 359 413 10,000 -60 Level Chicago Center
06:18PM 42.2333 -87.6500 226° Southwest 360 414 9,900 -240 Descending Chicago TRACON
06:19PM 42.1500 -87.7333 217° Southwest 306 352 9,500 -1,080 Descending Chicago TRACON
06:21PM 42.0900 -87.8397 233° Southwest 304 350 7,300 -1,200 Descending Chicago Center
06:21PM 42.1000 -87.9167 280° West 269 310 7,000 -240 Descending Chicago TRACON
06:22PM 42.1000 -88.0000 270° West 220 253 7,000  Level Chicago TRACON
06:23PM 42.0833 -88.0833 255° West 213 245 7,000 -600 Level Chicago TRACON
06:24PM 42.0833 -88.1500 270° West 211 243 5,900 -1,140 Descending Chicago TRACON
06:25PM 42.0906 -88.1961 282° West 214 246 5,300 -1,080 Descending Chicago Center
06:26PM 42.0697 -88.2622 247° West 226 260 4,100 -660 Descending Chicago Center
06:27PM 42.0106 -88.2656 182° South 217 250 4,000 -60 Descending Chicago Center
06:28PM 41.9725 -88.1986 127° Southeast 189 217 4,000 -300 Level Chicago Center
06:29PM 41.9672 -88.1331 96° East 180 207 3,500 -720 Descending Chicago Center
06:30PM 41.9683 -88.0650 89° East 179 206 2,600 -960 Descending Chicago Center
06:31PM 41.9686 -88.0017 90° East 177 204 1,600 -840 Descending Chicago Center
06:32PM 41.9667 -87.9333 92° East 126 145 800 -720 Descending Chicago TRACON